createdAt,value
2019-04-29T00:04:43.070Z,47.48
2019-04-29T00:07:32.977Z,47.71
2019-04-29T00:10:22.620Z,48.05
2019-04-29T00:13:12.635Z,48.13
2019-04-29T00:16:22.851Z,48.02
2019-04-29T00:19:31.508Z,48.24
2019-04-29T00:22:02.619Z,48.27
2019-04-29T00:24:33.417Z,48.66
2019-04-29T00:27:04.302Z,48.82
2019-04-29T00:29:36.017Z,48.88
2019-04-29T00:32:07.754Z,48.96
2019-04-29T00:34:38.691Z,49.05
2019-04-29T00:37:47.316Z,48.96
2019-04-29T00:40:37.814Z,48.92
2019-04-29T00:43:46.465Z,48.93
2019-04-29T00:46:17.352Z,48.88
2019-04-29T00:48:48.137Z,48.86
2019-04-29T00:57:48.705Z,48.66
2019-04-29T01:03:43.267Z,48.81
2019-04-29T01:06:33.099Z,48.93
2019-04-29T01:12:26.818Z,49.19
2019-04-29T01:17:59.395Z,48.96
2019-04-29T01:20:30.249Z,48.73
2019-04-29T01:23:01.925Z,48.80
2019-04-29T01:28:50.439Z,48.91
2019-04-29T01:31:40.075Z,48.55
2019-04-29T01:34:29.668Z,48.32
2019-04-29T01:43:20.492Z,48.82
2019-04-29T01:48:55.313Z,48.39
2019-04-29T01:54:48.970Z,48.80
2019-04-29T01:57:20.606Z,48.87
2019-04-29T01:59:52.442Z,48.83
2019-04-29T02:02:43.179Z,48.78
2019-04-29T02:08:24.430Z,48.75
2019-04-29T02:14:16.329Z,49.44
2019-04-29T02:20:30.653Z,49.82
2019-04-29T02:23:20.317Z,49.89
2019-04-29T02:26:31.287Z,49.79
2019-04-29T02:29:07.943Z,49.88
2019-04-29T02:34:54.949Z,50.05
2019-04-29T02:37:55.954Z,49.97
2019-04-29T02:46:25.956Z,50.18
2019-04-29T02:52:02.077Z,50.36
2019-04-29T02:57:52.053Z,50.47
2019-04-29T03:01:00.666Z,50.34
2019-04-29T03:03:51.226Z,50.55
2019-04-29T03:06:41.934Z,50.49
2019-04-29T03:09:12.677Z,50.46
2019-04-29T03:11:44.273Z,50.44
2019-04-29T03:14:35.918Z,50.32
2019-04-29T03:17:07.549Z,50.44
2019-04-29T03:20:18.769Z,50.38
2019-04-29T03:22:50.385Z,50.36
2019-04-29T03:25:22.161Z,50.29
2019-04-29T03:34:00.893Z,49.88
2019-04-29T03:36:32.669Z,50.11
2019-04-29T03:39:02.686Z,49.83
2019-04-29T03:42:13.014Z,49.78
2019-04-29T03:45:03.853Z,49.95
2019-04-29T03:47:54.681Z,49.94
2019-04-29T03:50:25.400Z,49.96
2019-04-29T03:52:56.273Z,49.90
2019-04-29T03:55:47.024Z,49.69
2019-04-29T03:58:36.847Z,49.71
2019-04-29T04:01:26.470Z,49.61
2019-04-29T04:07:33.834Z,49.73
2019-04-29T04:13:15.708Z,49.94
2019-04-29T04:19:01.089Z,49.92
2019-04-29T04:21:51.050Z,49.77
2019-04-29T04:24:21.916Z,49.52
2019-04-29T04:26:53.668Z,49.17
2019-04-29T04:29:43.533Z,49.17
2019-04-29T04:32:14.446Z,48.87
2019-04-29T04:34:45.284Z,48.73
2019-04-29T04:37:35.177Z,48.55
2019-04-29T04:40:43.874Z,48.48
2019-04-29T04:46:23.290Z,48.00
2019-04-29T04:52:36.230Z,48.03
2019-04-29T04:58:31.587Z,47.40
2019-04-29T05:01:02.436Z,47.44
2019-04-29T05:03:53.198Z,47.46
2019-04-29T05:06:58.044Z,47.13
2019-04-29T05:09:35.444Z,46.85
2019-04-29T05:15:09.633Z,46.88
2019-04-29T05:17:41.308Z,46.59
2019-04-29T05:23:58.484Z,46.40
2019-04-29T05:26:28.353Z,45.61
2019-04-29T05:29:00.037Z,45.28
2019-04-29T05:31:50.660Z,44.81
2019-04-29T05:37:22.414Z,44.26
2019-04-29T05:39:53.178Z,44.26
2019-04-29T05:42:23.941Z,43.20
2019-04-29T05:45:04.984Z,42.09
2019-04-29T05:47:52.303Z,42.09
2019-04-29T05:51:01.131Z,41.23
2019-04-29T05:53:54.910Z,41.03
2019-04-29T05:56:55.720Z,40.27
2019-04-29T05:59:28.512Z,39.48
2019-04-29T06:01:58.337Z,38.79
2019-04-29T06:07:30.875Z,37.71
2019-04-29T06:10:00.706Z,37.24
2019-04-29T06:12:51.469Z,36.51
2019-04-29T06:16:43.489Z,36.05
2019-04-29T06:18:31.599Z,34.61
2019-04-29T06:21:13.728Z,34.74
2019-04-29T06:24:11.008Z,33.75
2019-04-29T06:26:52.739Z,32.99
2019-04-29T06:29:31.532Z,32.80
2019-04-29T06:32:01.441Z,32.23
2019-04-29T06:40:51.821Z,32.30
2019-04-29T06:43:24.464Z,32.05
2019-04-29T06:46:12.631Z,32.19
2019-04-29T06:49:15.138Z,33.13
2019-04-29T06:52:25.063Z,33.33
2019-04-29T06:54:55.195Z,32.60
2019-04-29T06:57:44.095Z,32.87
2019-04-29T07:00:22.306Z,32.24
2019-04-29T07:03:29.212Z,32.20
2019-04-29T07:06:03.073Z,31.73
2019-04-29T07:17:22.365Z,34.38
2019-04-29T07:20:37.044Z,33.85
2019-04-29T07:26:26.422Z,32.22
2019-04-29T07:28:57.283Z,32.42
2019-04-29T07:34:33.767Z,32.10
2019-04-29T07:37:43.437Z,31.06
2019-04-29T07:40:23.653Z,30.98
2019-04-29T07:47:01.855Z,30.29
2019-04-29T07:52:35.804Z,29.52
2019-04-29T07:55:46.070Z,29.87
2019-04-29T07:59:16.075Z,29.67
2019-04-29T08:08:27.101Z,27.32
2019-04-29T08:11:00.406Z,26.76
2019-04-29T08:17:12.583Z,26.57
2019-04-29T08:23:13.740Z,26.40
2019-04-29T08:26:04.795Z,25.81
2019-04-29T08:28:35.630Z,25.90
2019-04-29T08:31:28.627Z,26.08
2019-04-29T08:37:21.116Z,25.38
2019-04-29T08:40:03.690Z,25.37
2019-04-29T08:46:00.684Z,25.51
2019-04-29T08:48:50.548Z,25.59
2019-04-29T08:54:37.218Z,25.30
2019-04-29T08:57:12.580Z,24.82
2019-04-29T09:00:25.860Z,24.82
2019-04-29T09:02:59.103Z,24.37
2019-04-29T09:08:24.302Z,24.58
2019-04-29T09:11:07.882Z,24.56
2019-04-29T09:13:38.707Z,24.51
2019-04-29T09:16:10.038Z,24.58
2019-04-29T09:18:42.176Z,24.96
2019-04-29T09:21:14.526Z,24.68
2019-04-29T09:23:56.069Z,24.50
2019-04-29T09:26:52.120Z,24.66
2019-04-29T09:29:35.157Z,24.36
2019-04-29T09:32:08.062Z,23.64
2019-04-29T09:34:40.859Z,23.19
2019-04-29T09:37:13.283Z,23.42
2019-04-29T09:39:44.770Z,24.44
2019-04-29T09:42:49.720Z,24.44
2019-04-29T09:45:35.498Z,23.72
2019-04-29T09:48:06.595Z,23.66
2019-04-29T09:50:44.030Z,24.39
2019-04-29T09:53:18.608Z,24.86
2019-04-29T09:55:51.531Z,24.61
2019-04-29T09:58:26.461Z,24.13
2019-04-29T10:01:18.619Z,24.12
2019-04-29T10:04:12.807Z,24.63
2019-04-29T10:06:44.968Z,24.53
2019-04-29T10:09:20.120Z,24.31
2019-04-29T10:11:52.162Z,23.89
2019-04-29T10:14:25.841Z,22.80
2019-04-29T10:17:19.151Z,22.83
2019-04-29T10:19:57.696Z,22.83
2019-04-29T10:22:42.874Z,23.54
2019-04-29T10:25:14.766Z,23.28
2019-04-29T10:27:47.070Z,23.28
2019-04-29T10:30:26.757Z,23.25
2019-04-29T10:32:57.751Z,23.22
2019-04-29T10:35:29.897Z,23.32
2019-04-29T10:38:04.221Z,23.26
2019-04-29T10:40:43.529Z,23.29
2019-04-29T10:43:35.880Z,23.25
2019-04-29T10:46:31.615Z,23.63
2019-04-29T10:49:10.547Z,23.66
2019-04-29T10:51:43.015Z,23.66
2019-04-29T10:54:24.204Z,23.05
2019-04-29T10:57:00.843Z,23.35
2019-04-29T10:59:46.853Z,23.76
2019-04-29T11:02:49.419Z,23.36
2019-04-29T11:05:36.198Z,23.36
2019-04-29T11:08:42.844Z,23.36
2019-04-29T11:11:27.055Z,23.00
2019-04-29T11:14:01.488Z,22.87
2019-04-29T11:16:46.255Z,22.94
2019-04-29T11:19:05.983Z,22.69
2019-04-29T11:21:44.557Z,22.82
2019-04-29T11:24:37.679Z,23.11
2019-04-29T11:27:23.068Z,23.33
2019-04-29T11:30:05.361Z,23.19
2019-04-29T11:32:47.332Z,22.26
2019-04-29T11:35:32.319Z,22.29
2019-04-29T11:38:17.656Z,21.63
2019-04-29T11:40:53.282Z,20.92
2019-04-29T11:43:35.609Z,20.55
2019-04-29T11:46:14.516Z,20.31
2019-04-29T11:48:50.286Z,19.72
2019-04-29T11:51:34.237Z,19.86
2019-04-29T11:54:03.839Z,20.16
2019-04-29T11:57:24.185Z,20.16
2019-04-29T12:00:14.805Z,19.79
2019-04-29T12:03:10.061Z,19.63
2019-04-29T12:06:03.989Z,19.48
2019-04-29T12:08:34.096Z,19.70
2019-04-29T12:11:09.455Z,20.27
2019-04-29T12:13:58.833Z,20.27
2019-04-29T12:16:44.787Z,20.39
2019-04-29T12:19:22.603Z,20.38
2019-04-29T12:22:08.897Z,20.51
2019-04-29T12:24:42.955Z,21.07
2019-04-29T12:27:19.815Z,22.23
2019-04-29T12:29:59.553Z,22.23
2019-04-29T12:32:43.501Z,21.84
2019-04-29T12:35:51.952Z,21.44
2019-04-29T12:38:48.873Z,21.47
2019-04-29T12:41:49.135Z,21.30
2019-04-29T12:44:57.020Z,21.31
2019-04-29T12:47:33.259Z,22.00
2019-04-29T12:50:06.587Z,22.26
2019-04-29T12:52:41.046Z,22.33
2019-04-29T12:55:20.109Z,22.33
2019-04-29T12:57:51.550Z,22.12
2019-04-29T13:00:30.594Z,22.10
2019-04-29T13:03:15.911Z,22.38
2019-04-29T13:06:04.866Z,22.32
2019-04-29T13:08:41.324Z,22.46
2019-04-29T13:11:20.962Z,22.59
2019-04-29T13:13:56.176Z,22.34
2019-04-29T13:16:55.837Z,22.65
2019-04-29T13:19:34.286Z,22.71
2019-04-29T13:22:15.582Z,22.74
2019-04-29T13:24:52.310Z,21.97
2019-04-29T13:27:27.073Z,22.62
2019-04-29T13:30:02.025Z,23.12
2019-04-29T13:32:43.442Z,23.59
2019-04-29T13:35:48.595Z,24.46
2019-04-29T13:38:28.313Z,24.69
2019-04-29T13:41:55.620Z,24.90
2019-04-29T13:44:32.507Z,25.09
2019-04-29T13:47:50.198Z,25.09
2019-04-29T13:50:53.291Z,25.64
2019-04-29T14:01:58.170Z,28.50
2019-04-29T14:08:40.356Z,29.66
2019-04-29T14:11:28.407Z,29.79
2019-04-29T14:14:17.895Z,28.77
2019-04-29T14:16:48.748Z,27.90
2019-04-29T14:19:40.603Z,27.30
2019-04-29T14:21:58.187Z,27.16
2019-04-29T14:24:33.143Z,27.00
2019-04-29T14:27:05.278Z,26.76
2019-04-29T14:29:41.963Z,27.23
2019-04-29T14:32:18.406Z,27.23
2019-04-29T14:35:11.741Z,26.97
2019-04-29T14:37:55.300Z,26.86
2019-04-29T14:40:24.102Z,27.00
2019-04-29T14:43:28.706Z,27.15
2019-04-29T14:46:45.585Z,27.54
2019-04-29T14:49:35.353Z,27.53
2019-04-29T14:52:20.204Z,27.77
2019-04-29T14:55:19.808Z,27.34
2019-04-29T14:57:55.612Z,27.06
2019-04-29T15:00:47.565Z,26.75
2019-04-29T15:03:35.625Z,26.55
2019-04-29T15:06:15.549Z,26.54
2019-04-29T15:08:58.546Z,26.92
2019-04-29T15:11:36.169Z,27.07
2019-04-29T15:14:29.225Z,27.14
2019-04-29T15:17:23.475Z,26.88
2019-04-29T15:20:09.820Z,26.94
2019-04-29T15:22:42.403Z,26.95
2019-04-29T15:25:16.710Z,26.94
2019-04-29T15:27:47.402Z,26.62
2019-04-29T15:30:18.842Z,26.69
2019-04-29T15:32:53.153Z,26.58
2019-04-29T15:35:24.290Z,26.73
2019-04-29T15:37:55.867Z,26.82
2019-04-29T15:40:28.747Z,27.13
2019-04-29T15:42:59.634Z,27.47
2019-04-29T15:45:32.419Z,28.03
2019-04-29T15:48:03.805Z,28.88
2019-04-29T15:50:45.141Z,28.82
2019-04-29T15:53:25.920Z,28.82
2019-04-29T15:56:07.152Z,30.19
2019-04-29T15:58:39.239Z,30.76
2019-04-29T16:01:27.149Z,31.90
2019-04-29T16:03:59.378Z,32.96
2019-04-29T16:06:46.940Z,34.27
2019-04-29T16:09:51.755Z,34.71
2019-04-29T16:12:23.316Z,35.20
2019-04-29T16:14:56.566Z,36.39
2019-04-29T16:17:31.872Z,37.14
2019-04-29T16:20:06.632Z,39.38
2019-04-29T16:22:40.644Z,39.38
2019-04-29T16:25:15.158Z,39.91
2019-04-29T16:27:53.369Z,40.71
2019-04-29T16:30:31.908Z,41.54
2019-04-29T16:33:13.050Z,41.95
2019-04-29T16:35:38.095Z,42.62
2019-04-29T16:38:11.446Z,42.37
2019-04-29T16:40:57.316Z,42.37
2019-04-29T16:43:38.333Z,42.42
2019-04-29T16:46:17.159Z,42.22
2019-04-29T16:48:53.134Z,42.23
2019-04-29T16:51:25.538Z,42.49
2019-04-29T16:53:56.627Z,42.44
2019-04-29T16:56:28.770Z,42.64
2019-04-29T16:59:09.160Z,42.72
2019-04-29T17:01:37.504Z,42.68
2019-04-29T17:04:12.076Z,42.22
2019-04-29T17:07:11.396Z,40.75
2019-04-29T17:09:54.057Z,41.07
2019-04-29T17:12:38.050Z,41.42
2019-04-29T17:15:24.344Z,40.46
2019-04-29T17:17:50.733Z,40.43
2019-04-29T17:20:25.602Z,40.96
2019-04-29T17:23:12.046Z,40.96
2019-04-29T17:25:47.292Z,40.73
2019-04-29T17:28:29.153Z,40.66
2019-04-29T17:31:30.743Z,39.75
2019-04-29T17:34:29.376Z,39.66
2019-04-29T17:36:55.367Z,39.80
2019-04-29T17:39:29.487Z,39.34
2019-04-29T17:42:03.707Z,39.84
2019-04-29T17:44:57.362Z,38.85
2019-04-29T17:47:49.250Z,39.30
2019-04-29T17:50:46.790Z,39.06
2019-04-29T17:53:28.238Z,39.45
2019-04-29T17:56:17.635Z,39.80
2019-04-29T17:58:58.255Z,39.19
2019-04-29T18:01:59.731Z,39.52
2019-04-29T18:04:57.308Z,38.56
2019-04-29T18:11:51.742Z,38.40
2019-04-29T18:15:10.790Z,40.11
2019-04-29T18:17:36.724Z,40.04
2019-04-29T18:20:33.409Z,39.97
2019-04-29T18:23:25.711Z,40.15
2019-04-29T18:26:11.736Z,40.74
2019-04-29T18:28:45.664Z,39.45
2019-04-29T18:31:26.411Z,39.77
2019-04-29T18:34:02.749Z,40.25
2019-04-29T18:37:00.487Z,40.05
2019-04-29T18:39:31.764Z,40.38
2019-04-29T18:42:06.660Z,40.29
2019-04-29T18:44:40.563Z,40.31
2019-04-29T18:47:50.640Z,41.08
2019-04-29T18:50:19.337Z,42.53
2019-04-29T18:52:52.840Z,42.53
2019-04-29T18:55:25.840Z,42.84
2019-04-29T18:58:02.396Z,40.86
2019-04-29T19:00:49.527Z,39.88
2019-04-29T19:03:22.004Z,41.22
2019-04-29T19:06:03.272Z,41.98
2019-04-29T19:09:05.979Z,41.73
2019-04-29T19:11:53.115Z,41.41
2019-04-29T19:14:34.823Z,41.25
2019-04-29T19:17:08.184Z,41.14
2019-04-29T19:19:41.296Z,41.38
2019-04-29T19:22:11.443Z,41.81
2019-04-29T19:24:48.021Z,42.52
2019-04-29T19:27:18.022Z,43.51
2019-04-29T19:29:48.556Z,44.30
2019-04-29T19:32:22.593Z,44.89
2019-04-29T19:35:05.541Z,45.40
2019-04-29T19:37:39.957Z,44.83
2019-04-29T19:40:09.262Z,45.08
2019-04-29T19:42:40.872Z,45.51
2019-04-29T19:45:17.200Z,45.94
2019-04-29T19:47:55.789Z,46.07
2019-04-29T19:50:27.151Z,46.11
2019-04-29T19:53:06.463Z,47.15
2019-04-29T19:55:43.213Z,47.75
2019-04-29T19:58:18.099Z,47.93
2019-04-29T20:00:51.798Z,48.45
2019-04-29T20:03:56.805Z,48.49
2019-04-29T20:06:32.490Z,48.49
2019-04-29T20:09:17.548Z,48.65
2019-04-29T20:11:45.260Z,48.48
2019-04-29T20:14:23.327Z,48.52
2019-04-29T20:17:13.093Z,48.76
2019-04-29T20:20:00.665Z,48.77
2019-04-29T20:22:37.034Z,48.98
2019-04-29T20:25:12.860Z,48.76
2019-04-29T20:27:48.896Z,48.54
2019-04-29T20:30:24.127Z,48.49
2019-04-29T20:33:01.047Z,48.11
2019-04-29T20:35:40.479Z,47.94
2019-04-29T20:38:11.721Z,47.83
2019-04-29T20:40:46.491Z,48.06
2019-04-29T20:43:20.750Z,48.28
2019-04-29T20:45:52.949Z,48.22
2019-04-29T20:48:24.049Z,48.27
2019-04-29T20:51:10.628Z,48.25
2019-04-29T20:53:49.254Z,48.25
2019-04-29T20:56:35.749Z,48.28
2019-04-29T20:59:12.853Z,48.13
2019-04-29T21:01:44.751Z,48.26
2019-04-29T21:04:31.197Z,48.40
2019-04-29T21:07:01.916Z,47.62
2019-04-29T21:09:30.802Z,48.08
2019-04-29T21:12:29.748Z,48.13
2019-04-29T21:15:07.394Z,48.21
2019-04-29T21:17:35.400Z,47.82
2019-04-29T21:20:13.981Z,47.86
2019-04-29T21:22:52.451Z,47.97
2019-04-29T21:25:29.389Z,48.31
2019-04-29T21:28:02.187Z,47.86
2019-04-29T21:30:42.562Z,48.25
2019-04-29T21:33:17.922Z,48.06
2019-04-29T21:36:00.571Z,48.06
2019-04-29T21:39:06.129Z,47.65
2019-04-29T21:42:05.793Z,47.76
2019-04-29T21:45:17.481Z,47.34
2019-04-29T21:47:53.211Z,47.02
2019-04-29T21:50:36.942Z,47.04
2019-04-29T21:53:05.082Z,47.13
2019-04-29T21:55:35.821Z,46.79
2019-04-29T21:58:09.480Z,47.20
2019-04-29T22:01:44.823Z,47.49
2019-04-29T22:15:53.243Z,50.65
2019-04-29T22:18:32.460Z,50.42
2019-04-29T22:21:10.171Z,50.70
2019-04-29T22:23:51.082Z,50.64
2019-04-29T22:26:26.811Z,50.25
2019-04-29T22:29:03.144Z,49.91
2019-04-29T22:31:33.828Z,49.72
2019-04-29T22:34:05.493Z,49.70
2019-04-29T22:36:39.966Z,49.06
2019-04-29T22:39:11.778Z,49.58
2019-04-29T22:42:04.056Z,49.66
2019-04-29T22:44:39.619Z,50.46
2019-04-29T22:47:17.206Z,50.09
2019-04-29T22:49:49.264Z,50.04
2019-04-29T22:52:25.444Z,49.95
2019-04-29T22:55:07.323Z,49.78
2019-04-29T22:57:37.680Z,49.51
2019-04-29T23:00:10.239Z,49.29
2019-04-29T23:02:41.825Z,49.40
2019-04-29T23:05:12.346Z,49.40
2019-04-29T23:07:47.625Z,48.66
2019-04-29T23:10:35.685Z,48.99
2019-04-29T23:13:31.085Z,48.33
2019-04-29T23:16:08.276Z,48.35
2019-04-29T23:18:44.074Z,48.02
2019-04-29T23:21:59.433Z,47.70
2019-04-29T23:25:13.210Z,47.70
2019-04-29T23:27:48.464Z,48.23
2019-04-29T23:30:29.337Z,48.44
2019-04-29T23:33:04.679Z,48.44
2019-04-29T23:36:02.100Z,48.15
2019-04-29T23:38:38.556Z,47.89
2019-04-29T23:41:11.021Z,47.63
2019-04-29T23:43:45.632Z,47.70
2019-04-29T23:46:19.777Z,47.44
2019-04-29T23:48:58.080Z,47.33
2019-04-29T23:51:37.630Z,47.35
2019-04-29T23:54:09.748Z,47.40
2019-04-29T23:57:11.490Z,47.32
